Time;durP1;ratioP1;P1;durP2;ratioP2;P2;SDS_P1;SDS_P2;PMS_P1;PMS_P2;Temp;Humidity;BMP_temperature;BMP_pressure;BME280_temperature;BME280_humidity;BME280_pressure;Samples;Min_cycle;Max_cycle;Signal;HPM_P1;HPM_P2
2022/03/24 00:01:58;;;;;;;;;;;6.70;91.30;;;5.56;56.95;96600.69;10557557;27;2025;-69
2022/03/24 00:07:02;;;;;;;;;;;6.70;91.30;;;5.49;57.99;96600.75;10522396;28;1999;-70
2022/03/24 00:12:06;;;;;;;;;;;6.80;92.10;;;5.42;57.25;96595.50;10523739;28;1930;-70
2022/03/24 00:17:09;;;;;;;;;;;6.70;91.80;;;5.33;58.16;96593.31;10529723;28;1968;-69
2022/03/24 00:22:12;;;;;;;;;;;6.60;92.10;;;5.23;58.13;96596.50;10523715;28;1965;-69
2022/03/24 00:27:16;;;;;;;;;;;6.70;92.40;;;5.14;59.12;96597.78;10525200;28;2078;-69
2022/03/24 00:32:19;;;;;;;;;;;6.40;92.40;;;5.06;58.87;96590.91;10524015;28;1835;-70
2022/03/24 00:37:25;;;;;;;;;;;;;;;5.07;58.45;96597.03;10519065;28;1898;-69
2022/03/24 00:42:28;;;;;;;;;;;6.30;92.60;;;4.99;58.81;96594.66;10536908;28;1906;-69
2022/03/24 00:47:32;;;;;;;;;;;6.30;92.70;;;4.86;59.51;96598.25;10522942;28;1851;-69
2022/03/24 00:52:42;;;;;;;;;;;6.20;93.00;;;4.86;59.36;96588.41;10522561;28;2416;-69
2022/03/24 00:57:46;;;;;;;;;;;6.10;93.50;;;4.71;59.77;96581.75;10523936;28;1907;-68
2022/03/24 01:02:49;;;;;;;;;;;6.20;93.90;;;4.60;60.00;96573.44;10516264;28;1917;-69
2022/03/24 01:07:52;;;;;;;;;;;5.90;93.90;;;4.51;60.47;96587.22;10530629;28;1854;-69
2022/03/24 01:12:59;;;;;;;;;;;5.80;94.20;;;4.49;60.78;96591.97;10532100;28;1878;-69
2022/03/24 01:18:02;;;;;;;;;;;4.20;93.50;;;4.47;60.43;96570.88;10519973;28;2349;-69
2022/03/24 01:23:05;;;;;;;;;;;5.80;94.40;;;4.46;60.51;96584.41;10527495;28;1910;-69
2022/03/24 01:28:09;;;;;;;;;;;5.60;94.70;;;4.34;61.77;96573.63;10547321;27;1874;-68
2022/03/24 01:33:12;;;;;;;;;;;5.70;95.10;;;4.23;62.20;96580.44;10521530;28;2529;-69
2022/03/24 01:38:16;;;;;;;;;;;5.50;95.60;;;4.18;62.57;96572.28;10528834;28;1987;-68
2022/03/24 01:43:19;;;;;;;;;;;5.50;95.60;;;4.11;62.52;96570.69;10528229;28;1954;-69
2022/03/24 01:48:23;;;;;;;;;;;5.40;96.00;;;4.16;62.25;96558.38;10529155;28;2003;-69
2022/03/24 01:53:26;;;;;;;;;;;5.40;96.20;;;4.09;62.80;96565.59;10529392;28;1999;-70
2022/03/24 01:58:29;;;;;;;;;;;5.40;96.50;;;4.06;62.96;96555.34;10530647;28;2010;-70
2022/03/24 02:03:33;;;;;;;;;;;5.30;96.60;;;4.06;63.14;96558.03;10532194;28;1922;-70
2022/03/24 02:08:36;;;;;;;;;;;5.30;96.70;;;4.04;63.50;96557.44;10530971;28;1995;-68
2022/03/24 02:13:40;;;;;;;;;;;5.30;97.00;;;4.01;63.54;96558.69;10528322;28;1971;-68
2022/03/24 02:18:45;;;;;;;;;;;5.30;96.90;;;3.97;63.45;96551.31;10520829;28;1996;-68
2022/03/24 02:23:50;;;;;;;;;;;5.30;97.20;;;3.91;63.87;96555.66;10523266;28;2065;-68
2022/03/24 02:28:54;;;;;;;;;;;5.20;97.30;;;4.08;63.49;96555.97;10526825;28;1890;-68
2022/03/24 02:34:37;;;;;;;;;;;5.20;97.60;;;3.99;64.36;96551.91;10520576;28;3813;-69
2022/03/24 02:39:21;;;;;;;;;;;5.20;97.50;;;4.01;63.33;96547.22;10524504;28;1971;-67
2022/03/24 02:44:25;;;;;;;;;;;5.20;97.40;;;3.94;63.81;96554.41;10527507;28;1918;-70
2022/03/24 02:49:28;;;;;;;;;;;5.20;97.50;;;3.87;63.98;96553.63;10530178;28;1940;-68
2022/03/24 02:54:31;;;;;;;;;;;5.10;97.70;;;3.78;64.74;96545.88;10529603;28;2027;-69
2022/03/24 02:59:34;;;;;;;;;;;5.10;98.00;;;3.66;65.05;96542.25;10532853;28;1879;-68
2022/03/24 03:04:39;;;;;;;;;;;5.00;98.30;;;3.65;65.44;96548.63;10587950;27;1900;-69
2022/03/24 03:09:41;;;;;;;;;;;4.90;98.60;;;3.62;65.68;96567.63;10571529;28;1851;-69
2022/03/24 03:14:47;;;;;;;;;;;4.90;98.90;;;3.62;65.59;96551.69;10567937;28;1966;-69
2022/03/24 03:19:50;;;;;;;;;;;4.90;99.20;;;3.60;66.08;96556.41;10571644;28;1992;-69
2022/03/24 03:24:54;;;;;;;;;;;4.80;99.30;;;3.53;66.53;96552.94;10575586;28;1811;-69
2022/03/24 03:29:57;;;;;;;;;;;4.80;99.40;;;3.53;66.54;96552.94;10572304;28;1901;-68
2022/03/24 03:35:01;;;;;;;;;;;4.80;99.70;;;3.46;66.48;96546.84;10603908;27;1774;-68
2022/03/24 03:40:04;;;;;;;;;;;4.70;99.70;;;3.41;67.01;96554.63;10570614;28;1950;-67
2022/03/24 03:45:07;;;;;;;;;;;4.70;99.90;;;3.44;67.33;96556.88;10569111;28;1757;-67
2022/03/24 03:50:11;;;;;;;;;;;4.70;99.90;;;3.43;67.61;96557.88;10570522;28;1870;-68
2022/03/24 03:55:14;;;;;;;;;;;4.60;99.90;;;3.41;67.78;96550.13;10535359;28;1826;-69
2022/03/24 04:05:38;;;;;;;;;;;4.70;99.90;;;3.45;68.11;96555.84;10523363;28;2548;-70
2022/03/24 04:10:41;;;;;;;;;;;4.70;99.90;;;3.40;68.86;96555.66;10522731;28;1863;-69
2022/03/24 04:15:45;;;;;;;;;;;4.60;99.90;;;3.43;67.99;96552.56;10522670;28;1964;-69
2022/03/24 04:20:48;;;;;;;;;;;4.70;99.90;;;3.35;69.11;96550.97;10523314;28;1918;-68
2022/03/24 04:25:53;;;;;;;;;;;4.60;99.90;;;3.30;68.77;96552.59;10538654;28;1898;-67
2022/03/24 04:30:56;;;;;;;;;;;4.60;99.90;;;3.20;68.60;96556.53;10516365;28;2016;-69
2022/03/24 04:35:59;;;;;;;;;;;4.50;99.90;;;3.18;69.16;96558.59;10519743;28;1863;-69
2022/03/24 04:41:04;;;;;;;;;;;4.50;99.90;;;3.17;68.80;96556.91;10533441;22;2564;-70
2022/03/24 04:46:08;;;;;;;;;;;4.40;99.90;;;3.09;69.49;96551.84;10505466;28;1963;-70
2022/03/24 04:51:11;;;;;;;;;;;4.40;99.90;;;3.08;69.76;96554.72;10476875;28;2080;-69
2022/03/24 04:56:16;;;;;;;;;;;4.60;99.90;;;3.07;69.97;96551.25;10491523;28;1980;-70
2022/03/24 05:01:19;;;;;;;;;;;4.30;99.90;;;3.09;70.03;96559.00;10486165;28;2032;-69
2022/03/24 05:06:23;;;;;;;;;;;4.30;99.90;;;3.10;70.49;96563.28;10489646;28;1924;-71
2022/03/24 05:11:25;;;;;;;;;;;4.30;99.90;;;3.15;69.49;96564.28;10477856;28;1790;-69
2022/03/24 05:16:29;;;;;;;;;;;4.40;99.90;;;3.16;69.84;96565.91;10477808;28;2034;-71
2022/03/24 05:21:32;;;;;;;;;;;4.40;99.90;;;3.27;69.40;96571.63;10479220;28;2170;-70
2022/03/24 05:26:37;;;;;;;;;;;4.40;99.90;;;3.33;68.91;96571.63;10482306;28;2051;-69
2022/03/24 05:31:40;;;;;;;;;;;4.50;99.90;;;3.45;68.98;96566.47;10468491;28;1704;-71
2022/03/24 05:36:43;;;;;;;;;;;4.60;99.90;;;3.64;67.65;96565.59;10483374;28;1853;-70
2022/03/24 05:41:47;;;;;;;;;;;4.80;99.90;;;3.86;67.19;96567.94;10473836;28;1983;-71
2022/03/24 05:46:50;;;;;;;;;;;4.80;99.90;;;4.10;65.22;96575.19;10470562;28;1926;-70
2022/03/24 05:51:52;;;;;;;;;;;5.10;99.90;;;4.34;64.52;96576.28;10484229;28;1919;-70
2022/03/24 05:56:56;;;;;;;;;;;5.20;99.90;;;4.63;62.71;96585.50;10474956;28;1986;-71
2022/03/24 06:01:59;;;;;;;;;;;5.40;99.90;;;4.85;62.74;96581.44;10489754;28;2046;-71
2022/03/24 06:07:03;;;;;;;;;;;5.60;99.90;;;5.06;60.79;96574.09;10476956;28;1860;-70
2022/03/24 06:12:08;;;;;;;;;;;5.90;99.40;;;5.26;60.60;96584.56;10499174;28;2064;-69
2022/03/24 06:17:12;;;;;;;;;;;6.00;99.20;;;5.45;59.72;96577.41;10483353;28;2041;-70
2022/03/24 06:22:15;;;;;;;;;;;6.20;98.40;;;5.68;58.59;96585.56;10494309;28;1965;-70
2022/03/24 06:27:19;;;;;;;;;;;6.30;98.10;;;5.91;57.00;96583.03;10470171;28;1987;-71
2022/03/24 06:32:22;;;;;;;;;;;6.50;97.20;;;6.21;56.02;96584.94;10475294;28;1794;-70
2022/03/24 06:37:27;;;;;;;;;;;6.80;96.40;;;6.49;55.52;96585.16;10473407;28;2087;-70
2022/03/24 06:42:31;;;;;;;;;;;7.00;96.00;;;6.77;54.56;96579.19;10477514;28;1918;-71
2022/03/24 06:47:34;;;;;;;;;;;7.20;95.50;;;7.02;53.14;96583.53;10488155;28;1868;-70
2022/03/24 06:52:38;;;;;;;;;;;7.60;94.20;;;7.40;52.11;96580.41;10466285;28;1800;-71
2022/03/24 06:57:42;;;;;;;;;;;7.80;93.80;;;7.65;51.30;96582.00;10478543;28;1861;-70
2022/03/24 07:02:46;;;;;;;;;;;8.10;93.00;;;7.91;50.17;96580.69;10477920;28;1902;-70
2022/03/24 07:07:49;;;;;;;;;;;8.40;92.30;;;8.06;49.55;96589.81;10472958;28;1806;-70
2022/03/24 07:13:03;;;;;;;;;;;8.60;91.40;;;8.33;48.85;96590.09;10475334;28;2070;-70
2022/03/24 07:18:06;;;;;;;;;;;8.70;99.90;;;8.58;47.69;96584.38;10468309;28;2075;-70
2022/03/24 07:23:09;;;;;;;;;;;8.90;99.90;;;8.88;47.05;96586.78;10472726;28;1958;-70
2022/03/24 07:28:12;;;;;;;;;;;9.20;99.90;;;9.06;46.46;96587.63;10477274;28;1857;-71
2022/03/24 07:33:16;;;;;;;;;;;9.30;99.90;;;9.09;46.76;96579.88;10473062;28;1896;-69
2022/03/24 07:38:19;;;;;;;;;;;9.40;99.90;;;9.45;45.20;96585.81;10471976;28;1848;-70
2022/03/24 07:43:28;;;;;;;;;;;9.70;99.90;;;9.68;45.22;96588.28;10482922;28;2012;-70
2022/03/24 07:48:32;;;;;;;;;;;10.00;99.90;;;9.89;44.43;96581.31;10490011;28;1988;-69
2022/03/24 07:53:35;;;;;;;;;;;10.20;91.70;;;10.20;44.21;96582.50;10482209;28;2024;-70
2022/03/24 07:58:38;;;;;;;;;;;10.40;91.30;;;10.31;43.52;96582.63;10479869;28;1872;-70
2022/03/24 08:03:43;;;;;;;;;;;10.60;88.90;;;10.80;42.41;96586.91;10480086;28;1910;-71
2022/03/24 08:08:49;;;;;;;;;;;10.90;88.00;;;11.05;41.02;96582.81;10478817;28;1848;-71
2022/03/24 08:13:53;;;;;;;;;;;11.20;85.70;;;11.38;40.40;96581.72;10496673;28;2018;-73
2022/03/24 08:18:57;;;;;;;;;;;11.50;85.50;;;11.82;39.47;96571.50;10480868;28;1797;-68
2022/03/24 08:24:00;;;;;;;;;;;11.90;89.00;;;11.98;38.65;96579.69;10475951;28;1910;-68
2022/03/24 08:29:04;;;;;;;;;;;12.30;89.80;;;12.16;37.18;96571.16;10487080;28;1825;-68
2022/03/24 08:34:07;;;;;;;;;;;12.50;89.00;;;12.35;36.57;96564.19;10485903;28;1922;-68
2022/03/24 08:39:10;;;;;;;;;;;12.70;91.40;;;12.73;35.91;96574.81;10473992;28;1892;-68
2022/03/24 08:44:13;;;;;;;;;;;12.90;99.90;;;12.96;35.06;96571.56;10491752;28;1973;-68
2022/03/24 08:49:19;;;;;;;;;;;;;;;13.25;34.64;96571.88;10490461;28;1853;-68
2022/03/24 08:54:24;;;;;;;;;;;;;;;13.42;34.72;96577.81;10479150;28;1837;-68
2022/03/24 08:59:27;;;;;;;;;;;13.60;77.50;;;13.45;34.86;96573.75;10468259;28;1849;-68
2022/03/24 09:04:31;;;;;;;;;;;;;;;13.74;34.85;96568.56;10479153;28;1910;-68
2022/03/24 09:09:55;;;;;;;;;;;;;;;13.91;33.64;96579.06;10468345;28;2086;-70
2022/03/24 09:14:58;;;;;;;;;;;14.20;76.10;;;14.14;32.56;96577.66;10481222;28;1793;-69
2022/03/24 09:20:02;;;;;;;;;;;14.50;75.30;;;14.29;32.06;96564.84;10476643;28;2239;-69
2022/03/24 09:25:05;;;;;;;;;;;14.90;74.60;;;14.60;32.68;96575.56;10481298;28;1930;-77
2022/03/24 09:30:09;;;;;;;;;;;15.00;75.30;;;14.40;31.13;96576.44;10493195;28;1860;-71
2022/03/24 09:35:12;;;;;;;;;;;15.00;81.30;;;14.64;30.62;96573.09;10489501;28;1849;-70
2022/03/24 09:40:15;;;;;;;;;;;15.10;81.50;;;14.73;29.27;96574.13;10478978;28;1798;-70
2022/03/24 09:45:19;;;;;;;;;;;15.20;75.20;;;14.83;28.19;96564.06;10483956;28;1906;-71
2022/03/24 09:50:24;;;;;;;;;;;15.30;71.20;;;14.88;28.94;96572.09;10495815;28;1849;-71
2022/03/24 09:55:32;;;;;;;;;;;15.30;70.40;;;15.01;29.52;96561.72;10482973;28;1811;-71
2022/03/24 10:00:35;;;;;;;;;;;15.60;70.90;;;15.24;29.40;96557.50;10501059;28;1834;-71
2022/03/24 10:05:39;;;;;;;;;;;15.70;73.00;;;15.00;28.96;96563.63;10485611;28;1918;-72
2022/03/24 10:10:42;;;;;;;;;;;;;;;15.12;27.82;96561.38;10488459;28;1753;-70
2022/03/24 10:15:46;;;;;;;;;;;15.90;68.30;;;15.33;28.90;96558.50;10481439;28;1624;-72
2022/03/24 10:20:49;;;;;;;;;;;15.90;69.50;;;15.55;27.59;96547.19;10494766;28;1839;-71
2022/03/24 10:25:52;;;;;;;;;;;16.20;68.30;;;15.58;27.29;96547.41;10481854;28;1989;-72
2022/03/24 10:30:58;;;;;;;;;;;16.30;67.70;;;15.61;27.76;96546.06;10471302;28;2013;-72
2022/03/24 10:36:02;;;;;;;;;;;16.40;67.80;;;15.47;27.45;96545.13;10475856;28;1837;-71
2022/03/24 10:41:06;;;;;;;;;;;16.30;67.00;;;15.54;25.49;96546.41;10464400;28;2049;-70
2022/03/24 10:46:09;;;;;;;;;;;16.30;64.90;;;15.49;25.47;96538.31;10472603;28;1917;-70
2022/03/24 10:51:12;;;;;;;;;;;16.30;64.70;;;15.49;25.75;96538.31;10474498;28;1925;-70
2022/03/24 10:56:15;;;;;;;;;;;16.30;64.50;;;15.77;25.08;96530.44;10460554;28;2070;-72
2022/03/24 11:01:18;;;;;;;;;;;16.50;64.50;;;15.89;24.71;96525.44;10504142;22;3584;-71
2022/03/24 11:06:22;;;;;;;;;;;16.70;63.30;;;16.00;23.87;96521.53;10512886;28;1991;-71
2022/03/24 11:11:25;;;;;;;;;;;16.80;63.00;;;15.86;24.18;96512.47;10489883;28;1851;-72
2022/03/24 11:16:28;;;;;;;;;;;16.70;62.70;;;16.09;23.89;96508.91;10509648;28;2013;-71
2022/03/24 11:21:31;;;;;;;;;;;16.80;62.30;;;15.96;25.04;96506.91;10488914;28;1896;-72
2022/03/24 11:26:35;;;;;;;;;;;16.90;63.30;;;15.96;24.37;96509.63;10488237;28;1984;-74
2022/03/24 11:31:39;;;;;;;;;;;16.90;62.60;;;16.07;23.66;96516.53;10493351;28;1780;-72
2022/03/24 11:36:43;;;;;;;;;;;16.90;62.10;;;16.13;23.79;96507.25;10522558;28;1541;-73
2022/03/24 11:41:46;;;;;;;;;;;16.90;61.50;;;16.18;22.97;96496.34;10531476;28;1938;-73
2022/03/24 11:46:49;;;;;;;;;;;17.00;60.70;;;16.07;22.83;96492.13;10520311;28;1902;-72
2022/03/24 11:51:52;;;;;;;;;;;16.90;60.40;;;16.24;22.56;96488.13;10530437;28;1714;-72
2022/03/24 11:56:55;;;;;;;;;;;17.00;60.40;;;16.30;22.92;96481.53;10542902;28;1968;-72
2022/03/24 12:01:58;;;;;;;;;;;17.00;60.10;;;16.30;23.17;96476.13;10518223;28;2099;-71
2022/03/24 12:07:03;;;;;;;;;;;17.20;60.40;;;16.31;22.92;96472.31;10542079;28;1869;-71
2022/03/24 12:12:06;;;;;;;;;;;17.20;60.20;;;16.44;22.48;96466.94;10529514;28;1941;-71
2022/03/24 12:17:09;;;;;;;;;;;17.20;59.50;;;16.33;23.31;96475.53;10514996;28;1753;-69
2022/03/24 12:22:14;;;;;;;;;;;17.30;60.10;;;16.40;23.00;96463.19;10533536;28;2031;-70
2022/03/24 12:27:18;;;;;;;;;;;17.30;60.00;;;16.63;22.56;96453.38;10537786;28;1877;-71
2022/03/24 12:32:23;;;;;;;;;;;17.50;59.80;;;16.41;23.07;96461.28;10525650;28;1852;-71
2022/03/24 12:37:27;;;;;;;;;;;17.40;59.60;;;16.60;22.93;96448.50;10483251;28;1892;-71
2022/03/24 12:42:30;;;;;;;;;;;17.50;59.60;;;16.68;22.81;96447.84;10487265;28;1985;-73
2022/03/24 12:47:34;;;;;;;;;;;17.60;59.60;;;16.81;22.07;96437.38;10492169;28;2022;-72
2022/03/24 12:52:38;;;;;;;;;;;17.70;59.30;;;16.93;22.10;96432.28;10480792;28;1845;-71
2022/03/24 12:57:41;;;;;;;;;;;17.80;59.00;;;16.71;22.91;96436.44;10479544;28;1805;-72
2022/03/24 13:02:44;;;;;;;;;;;16.70;58.90;;;16.66;23.25;96435.66;10488476;28;1979;-72
2022/03/24 13:07:48;;;;;;;;;;;17.60;59.30;;;16.64;23.13;96432.44;10489568;28;1812;-72
2022/03/24 13:12:51;;;;;;;;;;;17.50;59.90;;;16.93;22.78;96419.50;10495809;28;2149;-72
2022/03/24 13:17:54;;;;;;;;;;;17.60;59.40;;;16.81;22.71;96415.66;10492400;28;1833;-73
2022/03/24 13:22:57;;;;;;;;;;;17.70;59.30;;;16.91;22.67;96416.28;10504523;28;2111;-72
2022/03/24 13:28:02;;;;;;;;;;;17.70;59.10;;;16.98;21.71;96418.59;10492442;28;1784;-72
2022/03/24 13:33:06;;;;;;;;;;;17.90;58.10;;;17.01;21.97;96407.16;10498593;28;1812;-72
2022/03/24 13:38:09;;;;;;;;;;;17.90;57.80;;;17.10;22.44;96397.19;10484133;28;1788;-72
2022/03/24 13:43:12;;;;;;;;;;;18.00;58.60;;;16.87;22.70;96396.25;10477389;28;1979;-72
2022/03/24 13:48:16;;;;;;;;;;;17.80;58.60;;;16.82;22.23;96395.53;10486609;28;1841;-72
2022/03/24 13:53:19;;;;;;;;;;;17.70;57.80;;;16.97;21.77;96389.81;10469141;28;1837;-71
2022/03/24 13:58:22;;;;;;;;;;;17.80;57.70;;;16.98;21.37;96394.97;10485116;28;1831;-72
2022/03/24 14:03:27;;;;;;;;;;;17.90;57.30;;;17.03;21.39;96386.72;10478210;28;1915;-72
2022/03/24 14:08:30;;;;;;;;;;;17.80;57.10;;;16.97;21.37;96384.41;10483932;28;1817;-71
2022/03/24 14:13:34;;;;;;;;;;;17.80;56.40;;;16.98;21.63;96375.13;10495660;28;1790;-71
2022/03/24 14:18:37;;;;;;;;;;;17.80;57.30;;;16.89;21.30;96369.59;10486034;28;1777;-72
2022/03/24 14:23:40;;;;;;;;;;;17.80;56.70;;;16.91;21.55;96363.88;10485613;28;2057;-72
2022/03/24 14:28:43;;;;;;;;;;;17.80;57.00;;;16.97;21.92;96365.38;10490914;28;1431;-72
2022/03/24 14:33:47;;;;;;;;;;;17.70;57.40;;;16.81;21.21;96359.44;10488910;28;1500;-73
2022/03/24 14:38:50;;;;;;;;;;;17.70;56.70;;;16.73;21.78;96344.66;10486838;28;1600;-72
2022/03/24 14:43:53;;;;;;;;;;;17.60;56.80;;;16.66;21.60;96352.31;10492624;28;1910;-73
2022/03/24 14:48:57;;;;;;;;;;;17.60;56.50;;;16.70;21.60;96344.44;10493139;28;1604;-72
2022/03/24 14:53:59;;;;;;;;;;;17.60;56.60;;;16.86;21.26;96343.06;10483763;28;1499;-71
2022/03/24 14:59:04;;;;;;;;;;;17.60;56.40;;;16.70;21.38;96334.38;10475933;28;1496;-72
2022/03/24 15:04:07;;;;;;;;;;;17.50;56.20;;;16.74;20.68;96329.16;10498317;28;1914;-72
2022/03/24 15:09:10;;;;;;;;;;;17.60;55.90;;;16.64;20.61;96323.88;10480564;28;1702;-72
2022/03/24 15:19:34;;;;;;;;;;;17.50;55.50;;;16.61;20.75;96319.88;10481579;28;2045;-72
2022/03/24 15:24:38;;;;;;;;;;;17.50;55.50;;;16.59;22.05;96310.41;10488496;28;1918;-72
2022/03/24 15:29:42;;;;;;;;;;;17.40;56.30;;;16.56;21.99;96316.44;10489426;28;1685;-72
2022/03/24 15:34:46;;;;;;;;;;;17.40;56.70;;;16.50;21.79;96307.56;10482533;28;1957;-71
2022/03/24 15:39:49;;;;;;;;;;;17.30;56.40;;;16.34;21.98;96308.91;10480969;28;1621;-72
2022/03/24 15:44:53;;;;;;;;;;;17.30;56.50;;;16.38;22.16;96316.19;10486526;28;1918;-72
2022/03/24 15:49:57;;;;;;;;;;;17.20;56.60;;;16.36;22.15;96312.16;10489818;28;1663;-72
2022/03/24 15:55:00;;;;;;;;;;;17.30;56.80;;;16.16;23.25;96314.09;10474696;28;1555;-71
2022/03/24 16:00:04;;;;;;;;;;;17.20;57.50;;;16.37;23.14;96319.19;10478390;28;1517;-70
2022/03/24 16:05:07;;;;;;;;;;;17.20;57.60;;;16.34;23.17;96322.47;10478057;28;1981;-72
2022/03/24 16:10:13;;;;;;;;;;;17.20;57.70;;;16.18;22.72;96313.81;10475794;28;1445;-72
2022/03/24 16:15:16;;;;;;;;;;;17.20;57.40;;;16.09;23.11;96319.06;10475507;28;1522;-72
2022/03/24 16:20:19;;;;;;;;;;;17.00;57.80;;;15.94;23.74;96327.47;10479248;28;1772;-72
2022/03/24 16:25:22;;;;;;;;;;;16.90;58.40;;;15.95;23.66;96323.63;10480909;28;1914;-71
2022/03/24 16:30:26;;;;;;;;;;;16.80;58.30;;;15.88;23.86;96323.22;10485608;28;1656;-73
2022/03/24 16:35:29;;;;;;;;;;;16.80;58.60;;;15.78;23.96;96335.03;10475393;28;1569;-71
2022/03/24 16:40:32;;;;;;;;;;;16.70;58.50;;;15.71;23.94;96329.13;10481109;28;1425;-72
2022/03/24 16:45:35;;;;;;;;;;;16.60;58.40;;;15.59;24.23;96342.31;10474043;28;1910;-72
2022/03/24 16:50:38;;;;;;;;;;;16.60;58.50;;;15.55;24.22;96336.66;10480439;28;1674;-72
2022/03/24 16:55:42;;;;;;;;;;;16.50;58.80;;;15.44;24.39;96343.28;10484044;28;1639;-74
2022/03/24 17:00:45;;;;;;;;;;;16.40;58.80;;;15.33;24.32;96339.91;10539236;22;1741;-73
2022/03/24 17:05:55;;;;;;;;;;;16.20;58.70;;;15.09;24.73;96339.13;10545465;28;1932;-73
2022/03/24 17:10:59;;;;;;;;;;;16.10;59.00;;;14.83;25.26;96341.31;10538283;28;1865;-73
2022/03/24 17:16:02;;;;;;;;;;;15.90;59.40;;;14.72;25.06;96337.88;10520365;28;1870;-73
2022/03/24 17:21:05;;;;;;;;;;;15.70;59.60;;;14.65;25.74;96342.03;10517974;28;2242;-73
2022/03/24 17:26:08;;;;;;;;;;;15.70;59.70;;;14.08;26.57;96349.75;10521797;28;1898;-75
2022/03/24 17:31:12;;;;;;;;;;;15.40;60.20;;;13.91;26.96;96358.25;10510589;28;1774;-73
2022/03/24 17:36:15;;;;;;;;;;;15.20;60.80;;;13.55;27.80;96354.13;10515752;28;1904;-72
2022/03/24 17:41:19;;;;;;;;;;;14.90;61.50;;;13.69;27.20;96360.56;10513321;28;2060;-74
2022/03/24 17:46:22;;;;;;;;;;;14.70;61.60;;;13.32;28.37;96358.31;10506495;28;1982;-73
2022/03/24 17:51:25;;;;;;;;;;;14.50;62.30;;;12.92;29.78;96357.34;10520431;28;1969;-73
2022/03/24 17:56:28;;;;;;;;;;;14.40;63.00;;;12.93;28.84;96362.44;10529998;28;1981;-72
2022/03/24 18:01:31;;;;;;;;;;;14.10;63.00;;;12.62;30.14;96371.69;10527745;28;1850;-71
2022/03/24 18:06:36;;;;;;;;;;;13.90;63.40;;;12.37;30.38;96381.41;10519749;28;1918;-72
2022/03/24 18:11:40;;;;;;;;;;;13.70;63.90;;;12.14;31.28;96380.03;10522856;28;1826;-73
2022/03/24 18:16:44;;;;;;;;;;;13.50;64.30;;;11.97;31.58;96390.28;10516120;28;1877;-71
2022/03/24 18:21:47;;;;;;;;;;;13.30;64.90;;;11.83;31.59;96392.69;10524542;28;1850;-72
2022/03/24 18:26:50;;;;;;;;;;;13.10;65.30;;;11.62;31.72;96389.06;10514465;28;1983;-72
2022/03/24 18:31:54;;;;;;;;;;;12.90;65.50;;;11.48;32.80;96387.94;10519521;28;1838;-72
2022/03/24 18:36:57;;;;;;;;;;;12.80;66.00;;;11.30;33.07;96385.72;10515758;28;1831;-71
2022/03/24 18:42:00;;;;;;;;;;;12.70;66.60;;;11.21;34.48;96398.88;10516848;28;1854;-72
2022/03/24 18:47:06;;;;;;;;;;;12.50;67.60;;;11.17;34.14;96397.78;10520875;28;1972;-74
2022/03/24 18:52:09;;;;;;;;;;;12.50;67.70;;;11.06;34.55;96386.16;10522773;28;1822;-73
2022/03/24 18:57:13;;;;;;;;;;;12.40;68.20;;;10.97;34.51;96395.78;10518847;28;1913;-72
2022/03/24 19:02:16;;;;;;;;;;;12.30;68.20;;;10.88;34.51;96401.91;10520694;28;1867;-74
2022/03/24 19:07:19;;;;;;;;;;;12.20;68.50;;;10.87;35.59;96394.91;10531507;28;1920;-73
2022/03/24 19:12:22;;;;;;;;;;;12.10;69.10;;;10.79;36.08;96397.03;10517366;28;1916;-73
2022/03/24 19:17:25;;;;;;;;;;;12.00;69.50;;;10.71;35.52;96394.84;10515885;28;1674;-73
2022/03/24 19:22:28;;;;;;;;;;;11.90;69.60;;;10.65;34.99;96398.56;10513869;28;1647;-74
2022/03/24 19:27:31;;;;;;;;;;;11.90;69.10;;;10.63;34.57;96397.22;10512384;28;1968;-72
2022/03/24 19:32:34;;;;;;;;;;;11.90;69.10;;;10.58;35.28;96397.97;10509591;28;1656;-73
2022/03/24 19:37:38;;;;;;;;;;;11.70;69.20;;;10.49;36.01;96394.13;10513701;28;1636;-73
2022/03/24 19:42:41;;;;;;;;;;;11.70;69.80;;;10.44;35.21;96400.28;10506982;28;1605;-72
2022/03/24 19:47:51;;;;;;;;;;;11.70;69.50;;;10.40;36.73;96401.06;10513375;28;2090;-74
2022/03/24 19:53:01;;;;;;;;;;;11.60;70.30;;;10.43;36.38;96400.53;10512174;28;1418;-74
2022/03/24 19:58:06;;;;;;;;;;;11.60;70.40;;;10.35;36.68;96396.44;10511636;28;1437;-74
2022/03/24 20:03:10;;;;;;;;;;;11.60;70.80;;;10.15;37.64;96402.44;10521433;28;2310;-72
2022/03/24 20:08:14;;;;;;;;;;;11.40;71.10;;;10.06;37.85;96408.53;10514022;28;1914;-73
2022/03/24 20:13:17;;;;;;;;;;;11.30;71.60;;;10.05;37.85;96404.19;10500450;28;1692;-72
2022/03/24 20:18:21;;;;;;;;;;;11.30;71.70;;;9.96;37.74;96410.03;10507792;28;2007;-73
2022/03/24 20:23:24;;;;;;;;;;;11.20;71.90;;;9.88;38.34;96399.75;10505552;28;1487;-73
2022/03/24 20:28:28;;;;;;;;;;;11.10;72.30;;;9.87;38.73;96400.03;10512376;28;1937;-72
2022/03/24 20:33:34;;;;;;;;;;;11.00;72.80;;;9.73;39.29;96400.44;10515816;28;1470;-73
2022/03/24 20:38:37;;;;;;;;;;;11.00;73.20;;;9.52;41.02;96400.44;10499908;28;1549;-73
2022/03/24 20:43:41;;;;;;;;;;;10.80;74.20;;;9.36;41.56;96399.47;10502355;28;1919;-72
2022/03/24 20:48:44;;;;;;;;;;;10.60;75.20;;;9.19;42.32;96405.69;10504924;28;1914;-75
2022/03/24 20:53:47;;;;;;;;;;;10.50;75.60;;;9.08;42.80;96397.75;10505108;28;1723;-73
2022/03/24 20:58:51;;;;;;;;;;;10.40;76.10;;;9.12;41.39;96398.91;10513755;28;1564;-73
2022/03/24 21:03:54;;;;;;;;;;;10.30;75.60;;;9.09;42.13;96400.19;10509921;28;1579;-72
2022/03/24 21:08:57;;;;;;;;;;;10.30;75.90;;;8.95;44.23;96409.66;10497107;28;1922;-74
2022/03/24 21:13:59;;;;;;;;;;;10.20;77.10;;;8.81;44.90;96408.41;10502676;28;1596;-74
2022/03/24 21:19:05;;;;;;;;;;;10.10;78.10;;;8.71;44.54;96413.59;10502974;28;1445;-72
2022/03/24 21:24:08;;;;;;;;;;;10.00;78.20;;;8.76;43.37;96416.38;10511693;28;1545;-74
2022/03/24 21:29:11;;;;;;;;;;;9.90;78.10;;;8.72;43.42;96420.59;10510087;28;1918;-72
2022/03/24 21:34:17;;;;;;;;;;;10.00;77.60;;;8.42;44.18;96420.94;10514731;28;1494;-73
2022/03/24 21:39:20;;;;;;;;;;;9.90;77.50;;;8.40;43.58;96421.19;10522540;28;1516;-72
2022/03/24 21:44:23;;;;;;;;;;;9.70;77.30;;;8.14;44.56;96435.97;10513718;28;1983;-71
2022/03/24 21:49:26;;;;;;;;;;;9.50;78.00;;;8.07;45.29;96425.41;10518317;28;1989;-75
2022/03/24 21:54:30;;;;;;;;;;;9.30;78.70;;;7.85;45.54;96429.84;10504852;28;1760;-76
2022/03/24 21:59:33;;;;;;;;;;;9.20;78.70;;;7.75;45.85;96437.69;10515847;28;1491;-73
2022/03/24 22:04:40;;;;;;;;;;;9.10;79.10;;;7.71;45.99;96431.22;10511874;28;1982;-76
2022/03/24 22:09:43;;;;;;;;;;;9.00;79.20;;;7.61;45.62;96431.81;10510121;28;1441;-72
2022/03/24 22:14:47;;;;;;;;;;;8.90;79.20;;;7.56;45.31;96437.88;10501953;28;1628;-73
2022/03/24 22:19:49;;;;;;;;;;;8.90;79.00;;;7.56;45.32;96445.91;10529730;28;1534;-73
2022/03/24 22:24:53;;;;;;;;;;;8.80;78.90;;;7.49;45.56;96439.06;10506514;28;1914;-72
2022/03/24 22:29:56;;;;;;;;;;;8.80;78.90;;;7.31;46.85;96440.03;10513485;28;1455;-72
2022/03/24 22:35:00;;;;;;;;;;;8.50;80.10;;;7.23;47.60;96435.06;10517484;28;1542;-75
2022/03/24 22:40:04;;;;;;;;;;;8.60;80.70;;;7.11;48.60;96431.59;10520145;28;1506;-74
2022/03/24 22:45:07;;;;;;;;;;;8.40;81.20;;;7.16;47.08;96437.06;10551597;28;1883;-75
2022/03/24 22:50:10;;;;;;;;;;;7.70;86.80;;;7.07;48.15;96435.81;10520275;28;1434;-73
2022/03/24 22:55:14;;;;;;;;;;;8.40;81.40;;;7.02;47.65;96426.63;10513497;28;1825;-72
2022/03/24 23:00:18;;;;;;;;;;;8.40;81.20;;;7.04;47.65;96421.84;10517201;28;1828;-73
2022/03/24 23:05:22;;;;;;;;;;;8.30;81.20;;;6.91;48.98;96426.63;10512307;28;1917;-72
2022/03/24 23:10:25;;;;;;;;;;;8.20;82.40;;;6.74;49.67;96418.50;10514312;28;1739;-73
2022/03/24 23:15:29;;;;;;;;;;;8.00;82.60;;;6.75;49.56;96417.47;10514789;28;1783;-74
2022/03/24 23:20:32;;;;;;;;;;;7.90;83.10;;;6.69;50.29;96421.91;10515932;28;1856;-72
2022/03/24 23:25:36;;;;;;;;;;;8.60;85.30;;;6.69;50.17;96429.09;10507661;28;1983;-72
2022/03/24 23:30:40;;;;;;;;;;;7.60;83.60;;;6.66;50.55;96418.88;10529840;28;1769;-72
2022/03/24 23:35:43;;;;;;;;;;;7.80;83.90;;;6.59;51.26;96421.66;10511058;28;1814;-72
2022/03/24 23:40:47;;;;;;;;;;;7.80;84.50;;;6.55;51.84;96425.00;10507848;28;1731;-73
2022/03/24 23:45:50;;;;;;;;;;;7.70;84.80;;;6.49;52.58;96424.09;10508870;28;1973;-73